Time;durP1;ratioP1;P1;durP2;ratioP2;P2;SDS_P1;SDS_P2;PMS_P1;PMS_P2;Temp;Humidity;BMP_temperature;BMP_pressure;BME280_temperature;BME280_humidity;BME280_pressure;Samples;Min_cycle;Max_cycle;Signal;HPM_P1;HPM_P2
2024/01/26 00:00:47;;;;;;;7.93;4.07;;;;;;;9.65;100.00;97269.47;4975945;28;20206;-67
2024/01/26 00:03:13;;;;;;;8.43;4.00;;;;;;;9.66;100.00;97271.13;4974570;28;20219;-67
2024/01/26 00:05:40;;;;;;;9.53;3.93;;;;;;;9.61;100.00;97264.63;4976720;28;20207;-67
2024/01/26 00:08:08;;;;;;;12.27;4.53;;;;;;;9.67;100.00;97266.69;4973989;28;20695;-67
2024/01/26 00:10:34;;;;;;;9.07;4.03;;;;;;;9.61;100.00;97262.00;4977917;28;21121;-67
2024/01/26 00:13:01;;;;;;;12.00;4.63;;;;;;;9.64;100.00;97267.81;4974138;28;20195;-67
2024/01/26 00:15:28;;;;;;;7.13;3.63;;;;;;;9.56;100.00;97261.59;4976665;28;20239;-67
2024/01/26 00:17:54;;;;;;;8.40;3.37;;;;;;;9.62;100.00;97263.66;4973629;28;20231;-67
2024/01/26 00:20:21;;;;;;;10.07;3.90;;;;;;;9.56;100.00;97245.81;4976208;28;20210;-67
2024/01/26 00:22:48;;;;;;;7.47;3.63;;;;;;;9.41;100.00;97252.56;4979137;28;20277;-67
2024/01/26 00:25:16;;;;;;;9.43;3.90;;;;;;;9.66;100.00;97272.91;4978205;28;20669;-67
2024/01/26 00:27:42;;;;;;;9.17;3.83;;;;;;;9.60;100.00;97262.97;4979032;28;20223;-67
2024/01/26 00:30:10;;;;;;;7.30;3.90;;;;;;;9.48;100.00;97251.84;4976865;28;20215;-67
2024/01/26 00:32:36;;;;;;;8.83;3.27;;;;;;;9.55;100.00;97252.09;4980679;28;20299;-67
2024/01/26 00:35:04;;;;;;;8.63;4.33;;;;;;;9.45;100.00;97246.84;4977893;28;20204;-67
2024/01/26 00:37:30;;;;;;;8.93;3.67;;;;;;;9.46;100.00;97245.06;4979181;28;20207;-67
2024/01/26 00:39:57;;;;;;;10.00;3.57;;;;;;;9.56;100.00;97249.31;4977477;28;20834;-67
2024/01/26 00:42:25;;;;;;;7.30;3.53;;;;;;;9.65;100.00;97242.31;4978847;28;20235;-67
2024/01/26 00:44:51;;;;;;;10.20;3.57;;;;;;;9.55;100.00;97246.81;4976314;28;20207;-67
2024/01/26 00:47:18;;;;;;;8.00;3.53;;;;;;;9.51;100.00;97250.69;4976877;28;20210;-67
2024/01/26 00:49:44;;;;;;;10.43;4.00;;;;;;;9.52;100.00;97250.56;4977263;28;20207;-67
2024/01/26 00:52:11;;;;;;;6.60;3.47;;;;;;;9.47;100.00;97254.59;4977415;28;20204;-67
2024/01/26 00:54:37;;;;;;;7.87;3.57;;;;;;;9.47;100.00;97254.59;4980634;28;20405;-67
2024/01/26 00:57:04;;;;;;;9.50;4.20;;;;;;;9.48;100.00;97256.25;4976670;28;20673;-67
2024/01/26 00:59:32;;;;;;;9.20;3.87;;;;;;;9.43;100.00;97253.22;4979481;28;20798;-67
2024/01/26 01:01:59;;;;;;;7.13;3.47;;;;;;;9.30;100.00;97258.00;4976339;28;20211;-67
2024/01/26 01:04:25;;;;;;;7.77;3.23;;;;;;;9.30;100.00;97258.81;4978552;28;20725;-67
2024/01/26 01:06:52;;;;;;;7.20;3.63;;;;;;;9.36;100.00;97262.69;4976470;28;20548;-66
2024/01/26 01:09:19;;;;;;;13.17;3.80;;;;;;;9.25;100.00;97254.97;4977345;28;20236;-67
2024/01/26 01:11:46;;;;;;;8.47;4.03;;;;;;;9.28;100.00;97252.88;4979393;28;20662;-67
2024/01/26 01:14:12;;;;;;;10.50;3.37;;;;;;;9.32;100.00;97256.06;4977326;28;20199;-67
2024/01/26 01:16:41;;;;;;;9.87;3.70;;;;;;;9.35;100.00;97255.75;4978036;28;20681;-67
2024/01/26 01:19:08;;;;;;;5.70;2.87;;;;;;;9.23;100.00;97259.56;4975781;28;20227;-67
2024/01/26 01:21:35;;;;;;;7.73;3.30;;;;;;;9.04;100.00;97269.28;4979367;28;20792;-67
2024/01/26 01:24:01;;;;;;;9.03;3.77;;;;;;;9.23;100.00;97263.00;4976373;28;20223;-67
2024/01/26 01:26:28;;;;;;;10.33;4.17;;;;;;;9.14;100.00;97268.31;4977830;28;20204;-67
2024/01/26 01:28:54;;;;;;;7.73;3.47;;;;;;;9.25;100.00;97268.97;4976163;28;21448;-67
2024/01/26 01:31:21;;;;;;;10.83;4.23;;;;;;;9.16;100.00;97269.81;4977362;28;20237;-67
2024/01/26 01:33:49;;;;;;;11.33;3.70;;;;;;;9.32;100.00;97266.59;4978688;28;20202;-67
2024/01/26 01:36:15;;;;;;;8.73;3.20;;;;;;;9.20;100.00;97265.94;4976846;28;20200;-67
2024/01/26 01:38:42;;;;;;;11.07;4.17;;;;;;;9.33;100.00;97262.94;4978710;28;20915;-67
2024/01/26 01:41:08;;;;;;;9.40;3.47;;;;;;;9.13;100.00;97261.38;4976032;28;20199;-67
2024/01/26 01:43:35;;;;;;;8.07;3.37;;;;;;;9.22;100.00;97265.78;4978671;28;20814;-67
2024/01/26 01:46:02;;;;;;;6.80;2.93;;;;;;;9.22;100.00;97265.78;4976101;28;20210;-67
2024/01/26 01:48:29;;;;;;;6.73;2.73;;;;;;;9.10;100.00;97272.19;4975723;28;20227;-67
2024/01/26 01:50:57;;;;;;;9.67;3.83;;;;;;;9.27;100.00;97263.56;4976019;28;20203;-67
2024/01/26 01:53:25;;;;;;;9.43;3.13;;;;;;;9.29;100.00;97272.97;4976557;28;20593;-66
2024/01/26 01:55:52;;;;;;;8.57;3.53;;;;;;;9.10;100.00;97272.19;4978413;28;20219;-67
2024/01/26 01:58:22;;;;;;;7.83;3.53;;;;;;;9.31;100.00;97270.19;4975845;28;20745;-67
2024/01/26 02:00:49;;;;;;;8.07;3.50;;;;;;;9.10;100.00;97278.28;4978291;28;20627;-67
2024/01/26 02:03:15;;;;;;;11.00;4.23;;;;;;;9.04;100.00;97278.03;4974971;28;20223;-67
2024/01/26 02:05:42;;;;;;;10.30;3.67;;;;;;;9.17;100.00;97281.97;4977599;28;20525;-67
2024/01/26 02:08:10;;;;;;;10.43;4.23;;;;;;;9.21;100.00;97274.63;4975534;28;20709;-67
2024/01/26 02:10:36;;;;;;;8.13;3.50;;;;;;;9.11;100.00;97279.94;4977242;28;20207;-67
2024/01/26 02:13:03;;;;;;;9.87;3.67;;;;;;;8.96;100.00;97267.41;4975571;28;20206;-67
2024/01/26 02:15:30;;;;;;;12.47;3.30;;;;;;;9.17;100.00;97270.63;4976872;28;20203;-67
2024/01/26 02:17:56;;;;;;;9.43;3.60;;;;;;;9.13;100.00;97277.97;4974940;28;20219;-66
2024/01/26 02:20:23;;;;;;;8.70;3.53;;;;;;;9.22;100.00;97263.16;4975612;28;21055;-67
2024/01/26 02:22:49;;;;;;;7.53;3.50;;;;;;;9.10;100.00;97265.13;4977353;28;20210;-67
2024/01/26 02:25:17;;;;;;;13.00;5.07;;;;;;;9.08;100.00;97268.88;4975577;28;20211;-67
2024/01/26 02:27:44;;;;;;;8.07;3.30;;;;;;;9.09;100.00;97263.47;4978452;28;20227;-67
2024/01/26 02:30:11;;;;;;;9.87;4.00;;;;;;;9.26;100.00;97256.63;4975294;28;20962;-67
2024/01/26 02:32:38;;;;;;;6.40;3.60;;;;;;;9.11;100.00;97263.31;4977952;28;20704;-67
2024/01/26 02:35:05;;;;;;;10.30;3.83;;;;;;;9.22;100.00;97257.91;4975655;28;20665;-67
2024/01/26 02:37:32;;;;;;;7.00;3.30;;;;;;;9.24;100.00;97269.94;4977291;28;20207;-67
2024/01/26 02:39:58;;;;;;;7.47;3.17;;;;;;;9.23;100.00;97268.25;4977577;28;20293;-67
2024/01/26 02:42:26;;;;;;;9.70;3.10;;;;;;;9.33;100.00;97263.81;4975063;28;20217;-67
2024/01/26 02:44:52;;;;;;;8.03;3.57;;;;;;;9.08;100.00;97263.63;4977744;28;20223;-67
2024/01/26 02:47:19;;;;;;;7.03;3.13;;;;;;;9.35;100.00;97271.53;4974143;28;20469;-67
2024/01/26 02:49:45;;;;;;;8.73;3.43;;;;;;;9.32;100.00;97269.22;4974789;28;20474;-67
2024/01/26 02:52:12;;;;;;;5.90;3.00;;;;;;;9.20;100.00;97267.72;4975693;28;20199;-67
2024/01/26 02:54:38;;;;;;;8.87;3.03;;;;;;;9.21;100.00;97264.94;4977499;28;20211;-67
2024/01/26 02:57:05;;;;;;;9.80;3.83;;;;;;;9.16;100.00;97266.34;4975162;28;20624;-67
2024/01/26 02:59:33;;;;;;;7.47;3.20;;;;;;;9.28;100.00;97276.56;4976533;28;20239;-67
2024/01/26 03:02:00;;;;;;;8.53;3.13;;;;;;;9.18;100.00;97275.75;4974586;28;20579;-67
2024/01/26 03:04:27;;;;;;;7.03;3.27;;;;;;;9.19;100.00;97276.59;4975797;28;20238;-67
2024/01/26 03:06:56;;;;;;;7.37;3.40;;;;;;;9.43;100.00;97284.78;4977496;28;20207;-67
2024/01/26 03:09:23;;;;;;;9.20;4.00;;;;;;;9.31;100.00;97291.22;4974981;28;20219;-67
2024/01/26 03:11:49;;;;;;;7.57;3.13;;;;;;;9.22;100.00;97286.81;4978744;28;20268;-67
2024/01/26 03:14:16;;;;;;;8.60;3.30;;;;;;;9.30;100.00;97290.38;4975210;28;20923;-67
2024/01/26 03:16:44;;;;;;;8.23;3.50;;;;;;;9.47;100.00;97294.06;4975944;28;20207;-67
2024/01/26 03:19:11;;;;;;;8.07;2.93;;;;;;;9.30;100.00;97303.53;4973981;28;20231;-67
2024/01/26 03:21:42;;;;;;;11.23;4.33;;;;;;;9.47;100.00;97299.31;4977512;28;20424;-67
2024/01/26 03:24:08;;;;;;;8.40;3.53;;;;;;;9.20;100.00;97304.53;4974499;28;20223;-67
2024/01/26 03:26:35;;;;;;;6.67;3.10;;;;;;;9.29;100.00;97307.16;4976096;28;20214;-67
2024/01/26 03:29:02;;;;;;;6.37;2.63;;;;;;;9.35;100.00;97292.59;4976579;28;20724;-67
2024/01/26 03:31:29;;;;;;;7.13;3.33;;;;;;;9.29;100.00;97296.63;4974748;28;20218;-67
2024/01/26 03:33:57;;;;;;;6.00;2.97;;;;;;;9.34;100.00;97306.69;4978125;28;20230;-67
2024/01/26 03:36:23;;;;;;;6.43;2.97;;;;;;;9.25;100.00;97312.81;4974811;28;20289;-67
2024/01/26 03:38:50;;;;;;;7.73;3.20;;;;;;;9.30;100.00;97321.13;4977183;28;20226;-67
2024/01/26 03:41:17;;;;;;;6.07;2.70;;;;;;;9.25;100.00;97318.09;4972945;28;20294;-67
2024/01/26 03:43:43;;;;;;;8.50;3.60;;;;;;;9.15;100.00;97322.53;4974088;28;20227;-67
2024/01/26 03:46:10;;;;;;;7.13;3.33;;;;;;;8.96;100.00;97312.09;4974481;28;20203;-67
2024/01/26 03:48:36;;;;;;;7.23;3.20;;;;;;;9.09;100.00;97308.16;4972854;28;20229;-67
2024/01/26 03:51:04;;;;;;;6.40;3.07;;;;;;;9.30;100.00;97313.22;4976670;28;20207;-67
2024/01/26 03:53:31;;;;;;;7.60;2.70;;;;;;;9.09;100.00;97309.97;4976809;28;20302;-67
2024/01/26 03:55:57;;;;;;;6.67;2.70;;;;;;;9.08;100.00;97306.50;4979625;28;20900;-67
2024/01/26 03:58:24;;;;;;;7.60;3.30;;;;;;;9.06;100.00;97307.59;4977325;28;21177;-67
2024/01/26 04:00:50;;;;;;;4.53;1.93;;;;;;;9.07;100.00;97304.00;4981364;28;20214;-67
2024/01/26 04:03:17;;;;;;;6.83;3.13;;;;;;;9.06;100.00;97299.72;4977717;28;20204;-67
2024/01/26 04:05:43;;;;;;;5.73;2.80;;;;;;;9.19;100.00;97308.16;4979468;28;20462;-67
2024/01/26 04:08:13;;;;;;;5.57;2.73;;;;;;;9.26;100.00;97303.97;4977445;28;20383;-67
2024/01/26 04:10:40;;;;;;;5.33;2.40;;;;;;;9.17;100.00;97313.53;4979118;28;20207;-67
2024/01/26 04:13:06;;;;;;;6.07;2.67;;;;;;;9.18;100.00;97317.00;4979767;28;20268;-67
2024/01/26 04:15:33;;;;;;;6.67;2.40;;;;;;;9.26;100.00;97311.84;4978099;28;20210;-67
2024/01/26 04:18:00;;;;;;;4.20;2.13;;;;;;;9.07;100.00;97309.28;4976710;28;20238;-67
2024/01/26 04:20:26;;;;;;;7.53;2.73;;;;;;;8.97;100.00;97308.47;4977248;28;20203;-67
2024/01/26 04:22:53;;;;;;;6.47;2.57;;;;;;;9.14;100.00;97313.00;4980824;28;20207;-67
2024/01/26 04:25:21;;;;;;;8.97;2.40;;;;;;;9.29;100.00;97314.19;4977455;28;20229;-67
2024/01/26 04:27:47;;;;;;;6.77;3.00;;;;;;;9.17;100.00;97323.22;4979239;28;20298;-67
2024/01/26 04:30:15;;;;;;;6.30;2.47;;;;;;;9.15;100.00;97323.38;4977670;28;20295;-67
2024/01/26 04:32:41;;;;;;;4.27;2.10;;;;;;;9.16;100.00;97318.94;4978839;28;20836;-67
2024/01/26 04:35:11;;;;;;;5.27;2.70;;;;;;;9.32;100.00;97316.56;4976922;28;20202;-67
2024/01/26 04:37:37;;;;;;;4.27;2.07;;;;;;;8.98;100.00;97312.75;4977358;28;20210;-67
2024/01/26 04:40:05;;;;;;;7.13;2.70;;;;;;;9.15;100.00;97315.50;4978779;28;20230;-67
2024/01/26 04:42:33;;;;;;;5.17;2.13;;;;;;;9.40;100.00;97303.50;4976835;28;20211;-67
2024/01/26 04:44:59;;;;;;;6.27;2.23;;;;;;;9.22;100.00;97305.22;4979931;28;20234;-67
2024/01/26 04:47:26;;;;;;;6.63;3.00;;;;;;;8.98;100.00;97307.50;4976631;28;20749;-67
2024/01/26 04:49:52;;;;;;;4.67;1.97;;;;;;;9.26;100.00;97301.34;4978243;28;20211;-67
2024/01/26 04:52:19;;;;;;;5.53;2.50;;;;;;;9.27;100.00;97308.25;4976938;28;20217;-67
2024/01/26 04:54:46;;;;;;;6.17;2.70;;;;;;;9.23;100.00;97304.28;4979417;28;20658;-67
2024/01/26 04:57:13;;;;;;;5.87;3.23;;;;;;;9.20;100.00;97310.63;4976519;28;20203;-67
2024/01/26 04:59:41;;;;;;;13.17;4.20;;;;;;;9.26;100.00;97303.97;4978554;28;20253;-67
2024/01/26 05:02:08;;;;;;;16.83;7.37;;;;;;;9.27;100.00;97316.16;4978666;28;20590;-68
2024/01/26 05:04:35;;;;;;;22.07;6.53;;;;;;;9.25;100.00;97323.34;4976248;28;20596;-68
2024/01/26 05:07:01;;;;;;;26.53;10.50;;;;;;;9.25;100.00;97318.09;4978371;28;20207;-67
2024/01/26 05:09:28;;;;;;;28.43;11.90;;;;;;;9.16;100.00;97313.69;4976402;28;21051;-67
2024/01/26 05:11:55;;;;;;;14.83;6.40;;;;;;;9.22;100.00;97308.69;4978223;28;20207;-68
2024/01/26 05:14:22;;;;;;;9.93;5.13;;;;;;;9.24;100.00;97306.75;4976577;28;20591;-68
2024/01/26 05:16:49;;;;;;;7.23;3.33;;;;;;;9.43;100.00;97301.44;4976847;28;21166;-67
2024/01/26 05:19:16;;;;;;;7.67;3.30;;;;;;;9.21;100.00;97303.56;4975299;28;20227;-68
2024/01/26 05:21:43;;;;;;;3.83;2.43;;;;;;;9.16;100.00;97303.16;4978479;28;20203;-67
2024/01/26 05:24:09;;;;;;;6.77;3.27;;;;;;;9.34;100.00;97301.44;4978460;28;20223;-68
2024/01/26 05:26:38;;;;;;;17.00;4.60;;;;;;;9.44;100.00;97297.78;4976767;28;20218;-68
2024/01/26 05:29:06;;;;;;;18.50;5.10;;;;;;;9.29;100.00;97298.41;4979689;28;20219;-68
2024/01/26 05:31:33;;;;;;;28.63;7.20;;;;;;;9.43;100.00;97301.44;4976511;28;20214;-68
2024/01/26 05:34:01;;;;;;;13.47;5.37;;;;;;;9.40;100.00;97306.13;4980190;28;20195;-68
2024/01/26 05:36:28;;;;;;;6.43;3.57;;;;;;;9.41;100.00;97313.06;4976656;28;20204;-68
2024/01/26 05:38:54;;;;;;;4.87;2.20;;;;;;;9.38;100.00;97321.22;4978857;28;20233;-68
2024/01/26 05:41:21;;;;;;;10.00;3.60;;;;;;;9.31;100.00;97325.41;4976571;28;20420;-67
2024/01/26 05:43:48;;;;;;;12.83;3.13;;;;;;;9.44;100.00;97323.28;4978476;28;20402;-68
2024/01/26 05:46:15;;;;;;;7.83;2.87;;;;;;;9.46;100.00;97329.25;4977683;28;20293;-67
2024/01/26 05:48:43;;;;;;;5.73;2.63;;;;;;;9.62;100.00;97324.19;4976358;28;20228;-67
2024/01/26 05:51:12;;;;;;;5.27;2.50;;;;;;;9.50;100.00;97333.25;4980159;28;20289;-68
2024/01/26 05:53:39;;;;;;;7.73;3.20;;;;;;;9.43;100.00;97322.47;4976496;28;20203;-67
2024/01/26 05:56:06;;;;;;;15.67;4.50;;;;;;;9.42;100.00;97320.81;4978781;28;20211;-68
2024/01/26 05:58:32;;;;;;;12.13;4.80;;;;;;;9.27;100.00;97322.22;4975899;28;20249;-68
2024/01/26 06:00:59;;;;;;;6.30;3.10;;;;;;;9.25;100.00;97318.94;4979080;28;20316;-68
2024/01/26 06:03:25;;;;;;;7.83;3.10;;;;;;;9.35;100.00;97317.06;4976281;28;21144;-68
2024/01/26 06:05:52;;;;;;;7.97;3.90;;;;;;;9.51;100.00;97319.09;4978511;28;20247;-68
2024/01/26 06:08:20;;;;;;;5.37;2.77;;;;;;;9.56;100.00;97322.97;4976744;28;20229;-68
2024/01/26 06:10:47;;;;;;;4.57;2.50;;;;;;;9.54;100.00;97329.34;4976983;28;20296;-68
2024/01/26 06:13:13;;;;;;;5.23;2.53;;;;;;;9.46;100.00;97326.63;4977666;28;20209;-68
2024/01/26 06:15:41;;;;;;;5.00;2.50;;;;;;;9.46;100.00;97324.00;4976712;28;20287;-68
2024/01/26 06:18:07;;;;;;;9.30;2.60;;;;;;;9.52;100.00;97310.22;4974693;28;20219;-68
2024/01/26 06:20:34;;;;;;;7.53;2.83;;;;;;;9.42;100.00;97312.06;4975496;28;20215;-68
2024/01/26 06:23:01;;;;;;;6.50;2.20;;;;;;;9.52;100.00;97294.44;4977179;28;20199;-68
2024/01/26 06:25:28;;;;;;;5.30;2.90;;;;;;;9.55;100.00;97294.19;4976535;28;20223;-68
2024/01/26 06:27:55;;;;;;;5.10;2.37;;;;;;;9.56;100.00;97299.28;4976845;28;20227;-68
2024/01/26 06:30:21;;;;;;;5.50;2.77;;;;;;;9.53;100.00;97296.94;4978693;28;20229;-68
2024/01/26 06:32:48;;;;;;;5.07;2.17;;;;;;;9.35;100.00;97297.84;4976608;28;20211;-68
2024/01/26 06:35:15;;;;;;;5.80;3.03;;;;;;;9.50;100.00;97284.06;4978360;28;20213;-69
2024/01/26 06:37:41;;;;;;;5.43;2.63;;;;;;;9.48;100.00;97283.41;4976595;28;20227;-69
2024/01/26 06:40:11;;;;;;;6.87;2.60;;;;;;;9.53;100.00;97270.63;4976876;28;20195;-69
2024/01/26 06:42:39;;;;;;;4.93;2.20;;;;;;;9.50;100.00;97275.38;4977385;28;20238;-69
2024/01/26 06:45:10;;;;;;;5.53;2.37;;;;;;;9.50;100.00;97280.63;4976485;28;20222;-68
2024/01/26 06:47:36;;;;;;;4.30;2.23;;;;;;;9.37;100.00;97280.13;4975828;28;20642;-68
2024/01/26 06:50:03;;;;;;;4.57;2.23;;;;;;;9.27;100.00;97274.06;4975994;28;20203;-68
2024/01/26 06:52:29;;;;;;;5.47;2.50;;;;;;;9.52;100.00;97270.78;4978217;28;20203;-69
2024/01/26 06:54:56;;;;;;;11.87;3.20;;;;;;;9.62;100.00;97287.34;4976170;28;20212;-69
2024/01/26 06:57:22;;;;;;;5.97;2.37;;;;;;;9.62;100.00;97289.97;4977025;28;20200;-69
2024/01/26 06:59:50;;;;;;;3.87;1.77;;;;;;;9.70;100.00;97299.63;4977487;28;20207;-68
2024/01/26 07:02:17;;;;;;;3.10;2.20;;;;;;;9.68;100.00;97306.00;4976937;28;20941;-69
2024/01/26 07:04:44;;;;;;;3.27;2.00;;;;;;;9.57;100.00;97294.84;4976586;28;20227;-69
2024/01/26 07:07:10;;;;;;;3.07;1.50;;;;;;;9.66;100.00;97291.34;4975558;28;20217;-69
2024/01/26 07:09:37;;;;;;;3.43;1.90;;;;;;;9.68;100.00;97285.78;4976428;28;20237;-69
2024/01/26 07:12:04;;;;;;;2.17;1.70;;;;;;;9.73;100.00;97283.53;4976863;28;20199;-69
2024/01/26 07:14:31;;;;;;;3.20;1.90;;;;;;;9.65;100.00;97289.69;4977488;28;20203;-69
2024/01/26 07:16:59;;;;;;;2.00;1.50;;;;;;;9.83;100.00;97299.28;4975767;28;20217;-69
2024/01/26 07:19:25;;;;;;;1.90;1.17;;;;;;;9.68;100.00;97299.94;4974579;28;20215;-69
2024/01/26 07:21:52;;;;;;;3.57;1.80;;;;;;;9.63;100.00;97291.66;4974697;28;20245;-69
2024/01/26 07:24:18;;;;;;;3.50;2.10;;;;;;;9.34;100.00;97301.44;4976020;28;20227;-68
2024/01/26 07:26:46;;;;;;;1.73;1.10;;;;;;;9.62;100.00;97290.78;4976850;28;20214;-69
2024/01/26 07:29:12;;;;;;;4.63;1.47;;;;;;;9.62;100.00;97282.91;4978717;28;21151;-69
2024/01/26 07:31:41;;;;;;;1.97;1.33;;;;;;;9.59;100.00;97274.50;4979984;28;20207;-69
2024/01/26 07:34:08;;;;;;;1.93;1.37;;;;;;;10.05;100.00;97267.31;4979902;28;20217;-69
2024/01/26 07:36:36;;;;;;;4.40;2.00;;;;;;;9.57;100.00;97271.16;4980894;28;20203;-69
2024/01/26 07:39:03;;;;;;;1.77;1.03;;;;;;;9.55;100.00;97268.69;4978740;28;20259;-69
2024/01/26 07:41:30;;;;;;;2.77;1.40;;;;;;;9.65;100.00;97268.63;4980550;28;20207;-69
2024/01/26 07:43:56;;;;;;;2.87;1.23;;;;;;;9.66;100.00;97265.88;4978567;28;20203;-69
2024/01/26 07:46:23;;;;;;;4.20;1.60;;;;;;;9.76;100.00;97262.22;4980099;28;20764;-69
2024/01/26 07:48:50;;;;;;;1.27;1.00;;;;;;;9.83;100.00;97262.44;4977064;28;20223;-69
2024/01/26 07:51:17;;;;;;;2.40;1.40;;;;;;;9.88;100.00;97255.75;4979443;28;20213;-68
2024/01/26 07:53:44;;;;;;;1.97;1.20;;;;;;;9.93;100.00;97258.78;4975784;28;20218;-69
2024/01/26 07:56:10;;;;;;;3.03;1.50;;;;;;;9.92;100.00;97256.28;4979632;28;20225;-69
2024/01/26 07:58:38;;;;;;;1.43;0.93;;;;;;;9.89;100.00;97246.03;4976428;28;20242;-69
2024/01/26 08:01:05;;;;;;;2.93;1.30;;;;;;;9.87;100.00;97238.28;4979156;28;20253;-69
2024/01/26 08:03:32;;;;;;;1.93;1.23;;;;;;;9.94;100.00;97255.16;4979355;28;20413;-69
2024/01/26 08:05:58;;;;;;;1.37;0.80;;;;;;;9.99;100.00;97252.09;4978066;28;20724;-69
2024/01/26 08:08:26;;;;;;;1.53;1.00;;;;;;;10.12;100.00;97244.66;4979176;28;20224;-68
2024/01/26 08:10:53;;;;;;;1.60;1.33;;;;;;;9.90;100.00;97238.00;4980666;28;20212;-68
2024/01/26 08:13:19;;;;;;;3.63;0.90;;;;;;;9.97;100.00;97233.81;4978874;28;20207;-69
2024/01/26 08:15:46;;;;;;;1.23;1.00;;;;;;;10.06;100.00;97225.03;4978977;28;20204;-69
2024/01/26 08:18:12;;;;;;;1.73;1.37;;;;;;;10.02;100.00;97220.22;4977115;28;20224;-69
2024/01/26 08:20:39;;;;;;;1.10;0.90;;;;;;;10.06;100.00;97222.41;4977650;28;20199;-69
2024/01/26 08:23:05;;;;;;;3.17;0.87;;;;;;;10.05;100.00;97231.25;4978303;28;20214;-69
2024/01/26 08:25:33;;;;;;;2.73;1.03;;;;;;;10.22;100.00;97242.78;4980547;28;20241;-69
2024/01/26 08:28:00;;;;;;;1.43;0.90;;;;;;;9.98;100.00;97235.50;4978003;28;20243;-68
2024/01/26 08:30:27;;;;;;;1.00;0.90;;;;;;;10.09;100.00;97237.88;4979509;28;20294;-69
2024/01/26 08:32:54;;;;;;;1.73;1.30;;;;;;;10.23;100.00;97241.81;4978787;28;20207;-69
2024/01/26 08:35:20;;;;;;;1.53;0.90;;;;;;;10.35;100.00;97257.25;4978167;28;21141;-69
2024/01/26 08:37:47;;;;;;;1.93;0.87;;;;;;;10.34;100.00;97247.69;4978551;28;20227;-69
2024/01/26 08:40:13;;;;;;;2.77;1.40;;;;;;;10.51;100.00;97241.56;4977350;28;20549;-69
2024/01/26 08:42:44;;;;;;;2.30;1.00;;;;;;;10.33;100.00;97240.75;4978684;28;20213;-69
2024/01/26 08:45:10;;;;;;;1.50;1.00;;;;;;;10.46;100.00;97243.84;4979230;28;20670;-68
2024/01/26 08:47:37;;;;;;;1.13;0.57;;;;;;;10.18;100.00;97237.00;4977283;28;20207;-68
2024/01/26 08:50:04;;;;;;;1.20;0.90;;;;;;;10.35;100.00;97238.81;4976678;28;20441;-68
2024/01/26 08:52:30;;;;;;;1.53;0.80;;;;;;;10.50;100.00;97242.53;4979677;28;20210;-68
2024/01/26 08:54:58;;;;;;;1.63;0.80;;;;;;;10.65;100.00;97243.66;4976471;28;20300;-68
2024/01/26 08:57:25;;;;;;;3.90;1.47;;;;;;;10.57;100.00;97244.41;4978439;28;20206;-68
2024/01/26 08:59:52;;;;;;;1.07;0.90;;;;;;;10.88;100.00;97242.19;4978638;28;20585;-68
2024/01/26 09:02:19;;;;;;;1.43;0.97;;;;;;;10.41;100.00;97240.81;4978336;28;20215;-68
2024/01/26 09:04:45;;;;;;;3.63;1.20;;;;;;;10.61;100.00;97237.84;4977735;28;20751;-68
2024/01/26 09:07:12;;;;;;;1.77;1.20;;;;;;;10.81;100.00;97235.88;4977186;28;20203;-68
2024/01/26 09:09:39;;;;;;;2.10;0.80;;;;;;;10.77;100.00;97243.28;4979051;28;20230;-68
2024/01/26 09:12:06;;;;;;;4.20;1.33;;;;;;;10.74;100.00;97238.28;4977177;28;20592;-68
2024/01/26 09:14:32;;;;;;;1.37;0.80;;;;;;;10.88;100.00;97242.19;4979490;28;20214;-68
2024/01/26 09:17:01;;;;;;;1.10;0.80;;;;;;;10.87;100.00;97241.38;4976617;28;20233;-68
2024/01/26 09:19:27;;;;;;;1.00;0.73;;;;;;;10.67;100.00;97247.00;4976268;28;20223;-69
2024/01/26 09:21:54;;;;;;;0.83;0.70;;;;;;;10.69;100.00;97247.66;4979157;28;20254;-68
2024/01/26 09:24:20;;;;;;;2.57;0.90;;;;;;;10.86;100.00;97244.13;4977095;28;20203;-68
2024/01/26 09:26:47;;;;;;;1.13;0.70;;;;;;;10.85;100.00;97243.31;4977611;28;20239;-68
2024/01/26 09:29:14;;;;;;;1.00;0.93;;;;;;;10.69;100.00;97245.00;4976925;28;20231;-68
2024/01/26 09:31:40;;;;;;;1.63;0.70;;;;;;;10.71;100.00;97235.16;4975675;28;20981;-68
2024/01/26 09:34:09;;;;;;;0.97;0.73;;;;;;;10.92;100.00;97232.97;4975317;28;20203;-68
2024/01/26 09:36:35;;;;;;;1.77;0.90;;;;;;;10.86;100.00;97239.72;4978204;28;20213;-69
2024/01/26 09:39:02;;;;;;;0.90;0.70;;;;;;;10.83;100.00;97240.00;4975293;28;21052;-69
2024/01/26 09:41:29;;;;;;;2.00;1.13;;;;;;;10.71;100.00;97225.44;4977386;28;20215;-68
2024/01/26 09:43:56;;;;;;;1.47;0.90;;;;;;;10.76;100.00;97222.34;4977761;28;20210;-68
2024/01/26 09:46:22;;;;;;;2.20;1.27;;;;;;;11.04;100.00;97217.56;4977567;28;20233;-68
2024/01/26 09:48:53;;;;;;;1.47;0.90;;;;;;;11.07;100.00;97213.78;4973262;28;20227;-68
2024/01/26 09:51:22;;;;;;;2.00;1.50;;;;;;;11.09;100.00;97210.00;4975732;28;20230;-68
2024/01/26 09:53:52;;;;;;;1.27;0.90;;;;;;;10.99;100.00;97214.56;4976633;28;20215;-68
2024/01/26 09:56:20;;;;;;;0.60;0.60;;;;;;;11.05;100.00;97194.66;4976050;28;20512;-68
2024/01/26 09:58:47;;;;;;;0.80;0.80;;;;;;;10.71;100.00;97203.50;4974577;28;20326;-68
2024/01/26 10:01:18;;;;;;;1.23;0.87;;;;;;;11.19;100.00;97197.53;4975951;28;20214;-68
2024/01/26 10:03:44;;;;;;;0.93;0.80;;;;;;;11.19;100.00;97197.53;4974841;28;20215;-69
2024/01/26 10:06:11;;;;;;;1.23;0.87;;;;;;;11.20;100.00;97199.19;4977379;28;21275;-68
2024/01/26 10:08:40;;;;;;;2.07;0.87;;;;;;;11.44;100.00;97183.44;4975962;28;20234;-68
2024/01/26 10:11:06;;;;;;;4.23;1.10;;;;;;;11.37;100.00;97166.63;4977748;28;20203;-68
2024/01/26 10:13:33;;;;;;;1.17;0.70;;;;;;;11.40;100.00;97176.03;4976524;28;20233;-68
2024/01/26 10:16:05;;;;;;;2.33;1.00;;;;;;;11.75;100.00;97156.38;4977452;28;20213;-68
2024/01/26 10:18:38;;;;;;;1.10;1.00;;;;;;;11.91;100.00;97151.09;4973945;28;20235;-69
2024/01/26 10:21:05;;;;;;;1.53;0.80;;;;;;;11.73;100.00;97141.66;4977180;28;20208;-68
2024/01/26 10:23:31;;;;;;;0.97;0.93;;;;;;;11.55;100.00;97138.34;4976016;28;20207;-68
2024/01/26 10:25:59;;;;;;;0.80;0.63;;;;;;;11.65;100.00;97139.84;4980493;28;20227;-68
2024/01/26 10:28:26;;;;;;;1.37;1.00;;;;;;;11.52;100.00;97138.66;4975265;28;20223;-69
2024/01/26 10:30:52;;;;;;;1.37;1.10;;;;;;;11.57;100.00;97125.81;4977465;28;20225;-67
2024/01/26 10:33:21;;;;;;;2.80;0.87;;;;;;;11.41;100.00;97125.72;4977027;28;20213;-69
2024/01/26 10:35:49;;;;;;;1.20;1.10;;;;;;;11.61;100.00;97119.22;4976372;28;20203;-69
2024/01/26 10:38:16;;;;;;;1.10;0.77;;;;;;;11.48;100.00;97117.97;4976449;28;20224;-70
2024/01/26 10:40:44;;;;;;;3.10;0.80;;;;;;;11.67;100.00;97115.91;4976663;28;20207;-69
2024/01/26 10:43:13;;;;;;;1.47;0.90;;;;;;;11.86;100.00;97119.09;4977570;28;20208;-70
2024/01/26 10:45:39;;;;;;;1.30;1.00;;;;;;;11.61;100.00;97113.94;4974971;28;20223;-70
2024/01/26 10:48:08;;;;;;;1.87;0.90;;;;;;;11.63;100.00;97115.44;4975960;28;20227;-70
2024/01/26 10:50:36;;;;;;;4.00;0.70;;;;;;;11.35;100.00;97115.78;4974564;28;20692;-69
2024/01/26 10:53:04;;;;;;;1.80;1.27;;;;;;;11.47;100.00;97117.16;4977049;28;20206;-69
2024/01/26 10:55:31;;;;;;;1.17;1.03;;;;;;;11.59;100.00;97107.97;4975998;28;20214;-69
2024/01/26 10:57:58;;;;;;;5.03;1.10;;;;;;;11.53;100.00;97105.97;4977663;28;20243;-69
2024/01/26 11:00:26;;;;;;;2.33;1.20;;;;;;;11.79;100.00;97098.78;4975084;28;20210;-69
2024/01/26 11:02:53;;;;;;;1.63;1.17;;;;;;;11.70;100.00;97091.84;4975268;28;20213;-69
2024/01/26 11:05:19;;;;;;;0.70;0.70;;;;;;;11.71;100.00;97093.47;4979177;28;20290;-69
2024/01/26 11:07:47;;;;;;;2.00;1.30;;;;;;;11.63;100.00;97091.66;4974852;28;20326;-69
2024/01/26 11:10:23;;;;;;;2.60;1.50;;;;;;;11.92;100.00;97086.72;4977508;28;20377;-69
2024/01/26 11:13:00;;;;;;;0.87;0.60;;;;;;;11.87;100.00;97090.84;4975356;28;20669;-69
2024/01/26 11:15:29;;;;;;;1.83;1.10;;;;;;;11.94;100.00;97094.47;4978150;28;20205;-68
2024/01/26 11:17:57;;;;;;;1.67;0.90;;;;;;;11.83;100.00;97093.00;4975014;28;20227;-69
2024/01/26 11:20:26;;;;;;;1.20;1.07;;;;;;;11.98;100.00;97094.00;4975575;28;20200;-69
2024/01/26 11:23:03;;;;;;;1.67;1.03;;;;;;;12.15;100.00;97092.19;4975077;28;20209;-69
2024/01/26 11:25:35;;;;;;;1.90;1.37;;;;;;;12.16;100.00;97080.63;4976771;28;20275;-69
2024/01/26 11:28:03;;;;;;;1.27;0.93;;;;;;;12.15;100.00;97077.16;4976637;28;20231;-69